Time;durP1;ratioP1;P1;durP2;ratioP2;P2;SDS_P1;SDS_P2;PMS_P1;PMS_P2;Temp;Humidity;BMP_temperature;BMP_pressure;BME280_temperature;BME280_humidity;BME280_pressure;Samples;Min_cycle;Max_cycle;Signal;HPM_P1;HPM_P2
2024/01/02 00:01:52;;;;;;;0.83;0.37;;;9.40;40.40;;;;;;5054777;28;20645;-56
2024/01/02 00:04:18;;;;;;;1.77;1.67;;;9.30;41.20;;;;;;5054348;28;20193;-57
2024/01/02 00:06:48;;;;;;;1.20;0.93;;;9.30;40.50;;;;;;5054808;28;20513;-50
2024/01/02 00:09:15;;;;;;;0.90;0.50;;;9.20;40.50;;;;;;5054203;28;20662;-54
2024/01/02 00:11:41;;;;;;;1.52;1.42;;;9.20;40.60;;;;;;5054505;28;20671;-50
2024/01/02 00:14:06;;;;;;;1.02;0.90;;;9.10;40.60;;;;;;5054150;28;20217;-49
2024/01/02 00:16:33;;;;;;;1.30;1.20;;;9.10;40.70;;;;;;5054149;28;20558;-57
2024/01/02 00:18:59;;;;;;;0.90;0.60;;;9.00;40.70;;;;;;5053318;28;20247;-48
2024/01/02 00:21:25;;;;;;;0.85;0.40;;;9.00;40.80;;;;;;5054190;28;20187;-52
2024/01/02 00:23:50;;;;;;;1.20;1.00;;;8.90;40.70;;;;;;5054174;28;20207;-53
2024/01/02 00:26:16;;;;;;;0.90;0.60;;;9.00;40.70;;;;;;5054161;28;20191;-49
2024/01/02 00:28:42;;;;;;;1.00;0.73;;;8.90;40.60;;;;;;5054078;28;20174;-51
2024/01/02 00:31:08;;;;;;;1.30;0.70;;;8.90;40.80;;;;;;5054055;28;20688;-51
2024/01/02 00:33:33;;;;;;;1.07;0.83;;;8.90;41.10;;;;;;5054265;28;20205;-50
2024/01/02 00:35:59;;;;;;;1.13;0.73;;;8.80;41.20;;;;;;5053935;28;20463;-57
2024/01/02 00:38:27;;;;;;;2.10;1.00;;;8.80;41.30;;;;;;5053666;28;20202;-52
2024/01/02 00:40:53;;;;;;;1.00;0.80;;;8.80;41.30;;;;;;5053976;28;20172;-50
2024/01/02 00:43:18;;;;;;;1.00;0.60;;;8.80;41.30;;;;;;5053771;28;20689;-54
2024/01/02 00:45:44;;;;;;;1.07;0.70;;;8.80;41.40;;;;;;5053773;28;20179;-52
2024/01/02 00:48:11;;;;;;;0.80;0.33;;;8.80;41.70;;;;;;5037057;28;20336;-50
2024/01/02 00:50:37;;;;;;;0.90;0.50;;;8.70;41.70;;;;;;5033827;28;20875;-50
2024/01/02 00:53:03;;;;;;;0.90;0.40;;;8.80;41.70;;;;;;5033844;28;20209;-53
2024/01/02 00:55:29;;;;;;;1.00;0.80;;;8.80;41.70;;;;;;5045095;28;20279;-51
2024/01/02 00:57:55;;;;;;;0.80;0.30;;;8.90;41.70;;;;;;5053715;28;20178;-54
2024/01/02 01:00:21;;;;;;;1.00;0.70;;;8.90;41.70;;;;;;5053211;28;20422;-49
2024/01/02 01:02:46;;;;;;;1.53;0.70;;;8.90;41.80;;;;;;5053550;28;20199;-52
2024/01/02 01:05:12;;;;;;;1.23;0.83;;;8.90;42.20;;;;;;5053474;28;20699;-54
2024/01/02 01:07:38;;;;;;;0.80;0.32;;;8.90;41.80;;;;;;5053548;28;20165;-49
2024/01/02 01:10:04;;;;;;;0.80;0.23;;;8.90;42.30;;;;;;5053360;28;20172;-55
2024/01/02 01:12:29;;;;;;;1.02;0.65;;;8.90;42.30;;;;;;5053108;28;20242;-54
2024/01/02 01:14:55;;;;;;;1.30;1.13;;;8.80;43.40;;;;;;5053372;28;20210;-50
2024/01/02 01:17:21;;;;;;;0.90;0.50;;;8.80;42.80;;;;;;5053498;28;20232;-56
2024/01/02 01:19:47;;;;;;;1.00;0.53;;;8.80;42.90;;;;;;5053197;28;20554;-50
2024/01/02 01:22:12;;;;;;;0.80;0.30;;;8.90;43.20;;;;;;5053055;28;20187;-48
2024/01/02 01:24:38;;;;;;;0.90;0.47;;;9.00;43.70;;;;;;5053222;28;20175;-54
2024/01/02 01:27:04;;;;;;;0.90;0.47;;;9.00;42.60;;;;;;5053188;28;20184;-53
2024/01/02 01:29:30;;;;;;;0.90;0.63;;;9.10;42.30;;;;;;5052675;28;20184;-51
2024/01/02 01:31:55;;;;;;;1.10;0.77;;;9.30;42.10;;;;;;5053080;28;20473;-50
2024/01/02 01:34:21;;;;;;;1.10;0.83;;;9.40;41.40;;;;;;5052838;28;20205;-54
2024/01/02 01:36:47;;;;;;;0.80;0.30;;;9.40;41.80;;;;;;5052901;28;20338;-51
2024/01/02 01:39:13;;;;;;;0.90;0.57;;;9.40;41.70;;;;;;5035375;28;20185;-51
2024/01/02 01:41:38;;;;;;;0.90;0.50;;;9.50;41.20;;;;;;5032962;28;20177;-52
2024/01/02 01:44:04;;;;;;;0.80;0.40;;;9.50;41.40;;;;;;5032740;28;20193;-55
2024/01/02 01:46:39;;;;;;;0.98;0.70;;;9.60;41.30;;;;;;5032770;28;20174;-50
2024/01/02 01:49:07;;;;;;;2.25;0.93;;;9.70;41.30;;;;;;5061023;22;20188;-51
2024/01/02 01:51:39;;;;;;;0.93;0.30;;;9.50;42.30;;;;;;4985417;28;20186;-54
2024/01/02 01:54:05;;;;;;;0.80;0.40;;;9.40;42.40;;;;;;4993369;28;20189;-51
2024/01/02 01:56:32;;;;;;;3.47;0.93;;;9.50;42.30;;;;;;4993208;28;20210;-51
2024/01/02 01:59:00;;;;;;;1.13;0.60;;;9.60;42.10;;;;;;4993059;28;20422;-53
2024/01/02 02:01:27;;;;;;;0.80;0.40;;;9.70;42.00;;;;;;4993040;28;20576;-49
2024/01/02 02:03:53;;;;;;;0.80;0.30;;;9.80;41.80;;;;;;4993128;28;20167;-49
2024/01/02 02:06:18;;;;;;;0.80;0.30;;;9.80;41.80;;;;;;4993068;28;20186;-55
2024/01/02 02:08:44;;;;;;;0.80;0.30;;;9.80;41.80;;;;;;4992936;28;20418;-49
2024/01/02 02:11:13;;;;;;;0.80;0.30;;;9.90;41.90;;;;;;4992871;28;20203;-48
2024/01/02 02:13:40;;;;;;;0.80;0.20;;;9.90;41.80;;;;;;4993024;28;20261;-53
2024/01/02 02:16:06;;;;;;;0.80;0.32;;;10.00;41.90;;;;;;4992944;28;20244;-50
2024/01/02 02:18:31;;;;;;;0.80;0.30;;;10.10;41.60;;;;;;4992732;28;20199;-51
2024/01/02 02:20:57;;;;;;;0.90;0.43;;;10.10;41.50;;;;;;4992820;28;20430;-46
2024/01/02 02:23:23;;;;;;;0.80;0.30;;;10.10;41.40;;;;;;4992834;28;20522;-49
2024/01/02 02:25:48;;;;;;;0.80;0.37;;;10.20;41.30;;;;;;4992797;28;20179;-51
2024/01/02 02:28:14;;;;;;;0.80;0.35;;;10.10;41.50;;;;;;4992693;28;20176;-48
2024/01/02 02:30:40;;;;;;;0.80;0.20;;;10.00;41.60;;;;;;4992639;28;20317;-47
2024/01/02 02:33:06;;;;;;;0.90;0.53;;;10.00;41.70;;;;;;4992703;28;20184;-50
2024/01/02 02:35:31;;;;;;;0.80;0.30;;;10.00;41.70;;;;;;4992540;28;20659;-52
2024/01/02 02:37:57;;;;;;;2.03;0.60;;;10.00;41.80;;;;;;4992717;28;20314;-49
2024/01/02 02:40:23;;;;;;;1.00;0.70;;;10.10;42.00;;;;;;4992090;28;20202;-49
2024/01/02 02:42:49;;;;;;;1.38;0.77;;;10.10;42.00;;;;;;4992379;28;20222;-49
2024/01/02 02:45:15;;;;;;;0.80;0.30;;;10.00;42.00;;;;;;4992403;28;20628;-48
2024/01/02 02:47:41;;;;;;;0.80;0.30;;;10.00;41.80;;;;;;4992547;28;20267;-53
2024/01/02 02:50:07;;;;;;;0.90;0.40;;;10.00;41.90;;;;;;4992139;28;20301;-49
2024/01/02 02:52:33;;;;;;;0.90;0.40;;;10.00;41.80;;;;;;4992435;28;20410;-48
2024/01/02 02:54:59;;;;;;;1.00;0.70;;;9.90;42.10;;;;;;4992525;28;20175;-47
2024/01/02 02:57:25;;;;;;;1.23;0.77;;;9.80;42.00;;;;;;4992269;28;20450;-48
2024/01/02 02:59:51;;;;;;;0.90;0.40;;;9.80;41.90;;;;;;4992335;28;20225;-55
2024/01/02 03:02:17;;;;;;;1.30;1.17;;;9.80;42.00;;;;;;4992278;28;20422;-54
2024/01/02 03:04:43;;;;;;;0.90;0.50;;;9.90;42.10;;;;;;4992297;28;20414;-46
2024/01/02 03:07:10;;;;;;;0.80;0.30;;;9.90;42.20;;;;;;4992178;28;20545;-50
2024/01/02 03:09:36;;;;;;;0.80;0.30;;;9.90;42.10;;;;;;4992274;28;20195;-52
2024/01/02 03:12:02;;;;;;;1.35;0.63;;;9.90;42.10;;;;;;4992405;28;20193;-47
2024/01/02 03:14:28;;;;;;;0.80;0.20;;;10.00;41.90;;;;;;4992277;28;20550;-48
2024/01/02 03:16:54;;;;;;;0.90;0.43;;;10.00;41.80;;;;;;4992351;28;20461;-52
2024/01/02 03:19:19;;;;;;;0.90;0.50;;;10.00;41.90;;;;;;4991974;28;20498;-48
2024/01/02 03:21:45;;;;;;;0.80;0.30;;;10.00;41.90;;;;;;4992270;28;20297;-46
2024/01/02 03:24:11;;;;;;;0.90;0.57;;;10.00;42.00;;;;;;4992113;28;20568;-52
2024/01/02 03:26:36;;;;;;;0.90;0.50;;;10.00;42.20;;;;;;4992296;28;20209;-51
2024/01/02 03:29:02;;;;;;;0.90;0.50;;;10.00;42.40;;;;;;4991928;28;20179;-46
2024/01/02 03:31:28;;;;;;;0.90;0.50;;;9.90;43.00;;;;;;4992119;28;20179;-49
2024/01/02 03:33:55;;;;;;;0.90;0.60;;;9.80;43.20;;;;;;4992097;28;20244;-51
2024/01/02 03:36:21;;;;;;;0.88;0.45;;;9.70;43.60;;;;;;4992001;28;20285;-47
2024/01/02 03:38:51;;;;;;;0.93;0.68;;;9.70;43.60;;;;;;4991979;28;20179;-52
2024/01/02 03:41:17;;;;;;;0.90;0.52;;;9.70;43.60;;;;;;4992069;28;20690;-53
2024/01/02 03:43:44;;;;;;;0.90;0.50;;;9.70;43.60;;;;;;4992076;28;20180;-48
2024/01/02 03:46:11;;;;;;;0.90;0.52;;;9.70;43.60;;;;;;4991974;28;20210;-48
2024/01/02 03:48:37;;;;;;;0.80;0.28;;;9.80;43.60;;;;;;4991858;28;20188;-52
2024/01/02 03:51:03;;;;;;;0.80;0.30;;;9.80;43.90;;;;;;4991950;28;20218;-48
2024/01/02 03:53:29;;;;;;;3.40;0.68;;;9.80;43.60;;;;;;4993297;28;20457;-48
2024/01/02 03:55:56;;;;;;;0.80;0.30;;;9.80;43.80;;;;;;4995531;28;20195;-50
2024/01/02 03:58:21;;;;;;;0.80;0.32;;;9.70;43.60;;;;;;4995353;28;20421;-49
2024/01/02 04:00:47;;;;;;;0.80;0.30;;;9.70;43.80;;;;;;4995387;28;20198;-48
2024/01/02 04:03:13;;;;;;;0.90;0.57;;;9.70;43.90;;;;;;4995297;28;20187;-52
2024/01/02 04:05:39;;;;;;;0.80;0.20;;;9.70;43.90;;;;;;4995403;28;20226;-52
2024/01/02 04:08:05;;;;;;;1.00;0.80;;;9.70;44.00;;;;;;4995381;28;20181;-47
2024/01/02 04:10:30;;;;;;;0.80;0.40;;;9.70;43.90;;;;;;4995046;28;20198;-45
2024/01/02 04:12:56;;;;;;;0.90;0.40;;;9.60;44.30;;;;;;4995283;28;20179;-50
2024/01/02 04:15:22;;;;;;;1.00;0.80;;;9.50;44.60;;;;;;4995145;28;20430;-47
2024/01/02 04:17:48;;;;;;;0.90;0.60;;;9.50;44.70;;;;;;4995215;28;20172;-48
2024/01/02 04:20:14;;;;;;;0.90;0.45;;;9.50;44.60;;;;;;4994801;28;20213;-52
2024/01/02 04:22:39;;;;;;;0.80;0.38;;;9.50;44.50;;;;;;4995111;28;20657;-48
2024/01/02 04:25:07;;;;;;;0.90;0.50;;;9.50;44.60;;;;;;4995041;28;20229;-47
2024/01/02 04:27:32;;;;;;;1.60;0.57;;;9.50;44.60;;;;;;4994816;28;20174;-52
2024/01/02 04:29:58;;;;;;;0.90;0.57;;;9.60;44.60;;;;;;4994917;28;20701;-48
2024/01/02 04:32:24;;;;;;;1.00;0.90;;;9.50;44.80;;;;;;4994821;28;20257;-54
2024/01/02 04:34:50;;;;;;;0.80;0.40;;;9.60;44.70;;;;;;4994872;28;20490;-54
2024/01/02 04:37:16;;;;;;;0.90;0.57;;;9.60;44.50;;;;;;4994805;28;20249;-47
2024/01/02 04:39:41;;;;;;;1.73;1.03;;;9.60;44.60;;;;;;4994541;28;20712;-53
2024/01/02 04:42:07;;;;;;;0.90;0.43;;;9.60;44.60;;;;;;4994828;28;20213;-47
2024/01/02 04:44:33;;;;;;;0.90;0.50;;;9.60;44.70;;;;;;4994805;28;20182;-48
2024/01/02 04:46:59;;;;;;;1.00;0.77;;;9.60;45.00;;;;;;4994691;28;20647;-49
2024/01/02 04:49:26;;;;;;;0.90;0.40;;;9.60;44.70;;;;;;4994181;28;20228;-49
2024/01/02 04:51:51;;;;;;;1.15;0.80;;;9.60;45.30;;;;;;4994618;28;20202;-46
2024/01/02 04:54:17;;;;;;;0.80;0.30;;;9.50;45.10;;;;;;4994629;28;20211;-53
2024/01/02 04:56:43;;;;;;;0.80;0.30;;;9.50;45.70;;;;;;4994463;28;20453;-46
2024/01/02 04:59:09;;;;;;;1.00;0.70;;;9.40;45.90;;;;;;4994219;28;20206;-49
2024/01/02 05:01:35;;;;;;;1.00;0.90;;;9.40;45.80;;;;;;4994362;28;20413;-49
2024/01/02 05:04:01;;;;;;;0.90;0.60;;;9.40;46.00;;;;;;4994036;28;20186;-46
2024/01/02 05:06:27;;;;;;;1.23;0.50;;;9.50;45.70;;;;;;4994285;28;20659;-46
2024/01/02 05:08:52;;;;;;;1.53;0.80;;;9.50;45.50;;;;;;4994061;28;20229;-48
2024/01/02 05:11:18;;;;;;;0.90;0.40;;;9.60;45.40;;;;;;4994116;28;20309;-51
2024/01/02 05:13:44;;;;;;;1.30;0.80;;;9.70;45.40;;;;;;4994365;28;20260;-47
2024/01/02 05:16:10;;;;;;;1.00;0.57;;;9.70;45.50;;;;;;4993996;28;20695;-49
2024/01/02 05:18:36;;;;;;;1.30;0.65;;;9.70;45.60;;;;;;4993944;28;20182;-49
2024/01/02 05:21:02;;;;;;;0.93;0.60;;;9.70;45.50;;;;;;4993939;28;20438;-49
2024/01/02 05:23:28;;;;;;;0.90;0.50;;;9.70;45.60;;;;;;4993844;28;20414;-53
2024/01/02 05:25:54;;;;;;;0.90;0.50;;;9.70;45.80;;;;;;4993978;28;20173;-47
2024/01/02 05:28:20;;;;;;;0.90;0.50;;;9.70;45.60;;;;;;4993666;28;20186;-50
2024/01/02 05:30:46;;;;;;;0.93;0.63;;;9.80;45.60;;;;;;4993769;28;20210;-49
2024/01/02 05:33:12;;;;;;;0.90;0.43;;;9.80;45.70;;;;;;4993636;28;20428;-49
2024/01/02 05:35:38;;;;;;;0.80;0.30;;;9.80;45.80;;;;;;4993720;28;20460;-46
2024/01/02 05:38:03;;;;;;;0.90;0.43;;;9.80;45.80;;;;;;4993714;28;20179;-53
2024/01/02 05:40:29;;;;;;;1.00;0.60;;;9.80;45.90;;;;;;4993293;28;20691;-46
2024/01/02 05:42:55;;;;;;;1.40;0.80;;;9.80;46.20;;;;;;4993846;28;20172;-48
2024/01/02 05:45:21;;;;;;;1.10;0.73;;;9.80;46.30;;;;;;4993473;28;20222;-51
2024/01/02 05:47:47;;;;;;;0.90;0.50;;;9.70;46.30;;;;;;4993675;28;20595;-50
2024/01/02 05:50:13;;;;;;;0.90;0.60;;;9.70;46.90;;;;;;4993046;28;20214;-47
2024/01/02 05:52:41;;;;;;;0.90;0.70;;;9.70;46.90;;;;;;4993423;28;20178;-47
2024/01/02 05:55:07;;;;;;;1.90;0.90;;;9.70;46.90;;;;;;4993397;28;20175;-51
2024/01/02 05:57:33;;;;;;;1.10;1.00;;;9.60;47.30;;;;;;4993213;28;20283;-45
2024/01/02 05:59:58;;;;;;;0.90;0.50;;;9.60;47.50;;;;;;4992984;28;20797;-52
2024/01/02 06:02:24;;;;;;;1.50;1.13;;;9.60;47.80;;;;;;4993157;28;20182;-47
2024/01/02 06:04:50;;;;;;;1.00;0.70;;;9.60;47.70;;;;;;4993276;28;20181;-48
2024/01/02 06:07:16;;;;;;;1.30;0.80;;;9.60;47.80;;;;;;4993041;28;20429;-51
2024/01/02 06:09:41;;;;;;;1.00;0.73;;;9.60;47.50;;;;;;4992810;28;20198;-53
2024/01/02 06:12:08;;;;;;;1.20;0.53;;;9.70;47.70;;;;;;4993088;28;20183;-48
2024/01/02 06:14:34;;;;;;;1.10;0.57;;;9.70;47.50;;;;;;4993055;28;20185;-48
2024/01/02 06:17:00;;;;;;;1.30;1.02;;;9.70;47.50;;;;;;4992078;28;20210;-52
2024/01/02 06:19:25;;;;;;;1.70;1.40;;;9.70;47.50;;;;;;4992652;28;20198;-48
2024/01/02 06:21:51;;;;;;;0.90;0.63;;;9.70;47.70;;;;;;4992965;28;20176;-46
2024/01/02 06:24:17;;;;;;;1.00;0.90;;;9.70;47.50;;;;;;4992958;28;20176;-50
2024/01/02 06:26:43;;;;;;;1.07;0.67;;;9.70;47.40;;;;;;4993012;28;20667;-49
2024/01/02 06:29:08;;;;;;;3.67;1.63;;;9.70;47.20;;;;;;4992671;28;20699;-48
2024/01/02 06:31:34;;;;;;;1.98;0.73;;;9.80;47.20;;;;;;4992733;28;20422;-48
2024/01/02 06:34:00;;;;;;;0.90;0.60;;;9.80;47.30;;;;;;4992793;28;20184;-51
2024/01/02 06:36:25;;;;;;;1.83;0.70;;;9.80;47.30;;;;;;4992514;28;20615;-54
2024/01/02 06:38:51;;;;;;;0.87;0.40;;;9.80;46.90;;;;;;4992761;28;20634;-46
2024/01/02 06:41:17;;;;;;;1.30;0.90;;;9.80;46.90;;;;;;4992545;28;20541;-51
2024/01/02 06:43:43;;;;;;;0.80;0.40;;;9.80;46.90;;;;;;4992659;28;20187;-53
2024/01/02 06:46:11;;;;;;;0.90;0.60;;;9.90;47.00;;;;;;4992578;28;20253;-45
2024/01/02 06:48:37;;;;;;;0.90;0.55;;;9.80;46.90;;;;;;4992431;28;20186;-53
2024/01/02 06:51:03;;;;;;;1.00;0.85;;;9.90;46.90;;;;;;4992343;28;20303;-48
2024/01/02 06:53:29;;;;;;;2.53;1.90;;;9.90;47.10;;;;;;4992500;28;20667;-46
2024/01/02 06:55:54;;;;;;;3.00;1.10;;;9.80;47.00;;;;;;4992503;28;20875;-54
2024/01/02 06:58:20;;;;;;;0.90;0.50;;;9.90;47.00;;;;;;4992211;28;20186;-49
2024/01/02 07:00:46;;;;;;;0.90;0.50;;;9.90;46.90;;;;;;4992329;28;20234;-51
2024/01/02 07:03:12;;;;;;;0.80;0.40;;;9.90;46.80;;;;;;4992497;28;20179;-52
2024/01/02 07:05:37;;;;;;;1.20;1.03;;;9.90;46.80;;;;;;4992366;28;20936;-47
2024/01/02 07:08:03;;;;;;;0.90;0.60;;;9.90;46.90;;;;;;4992458;28;20311;-48
2024/01/02 07:10:29;;;;;;;0.90;0.43;;;9.80;46.80;;;;;;4992012;28;20206;-51
2024/01/02 07:12:55;;;;;;;0.90;0.47;;;9.90;46.90;;;;;;4992467;28;20214;-47
2024/01/02 07:15:21;;;;;;;0.90;0.50;;;9.80;46.90;;;;;;4992168;28;20836;-47
2024/01/02 07:17:46;;;;;;;2.40;2.20;;;9.90;47.10;;;;;;4992394;28;20649;-54
2024/01/02 07:20:13;;;;;;;1.25;0.95;;;9.90;46.90;;;;;;4992014;28;20290;-49
2024/01/02 07:22:39;;;;;;;3.78;0.77;;;9.90;46.90;;;;;;4992227;28;20172;-49
2024/01/02 07:25:05;;;;;;;1.63;0.80;;;9.90;46.90;;;;;;4992225;28;20175;-50
2024/01/02 07:27:31;;;;;;;1.00;0.80;;;9.90;46.80;;;;;;4993602;28;20178;-48
2024/01/02 07:29:56;;;;;;;0.90;0.60;;;9.90;46.90;;;;;;4995860;28;20587;-47
2024/01/02 07:32:22;;;;;;;1.08;0.80;;;9.90;46.80;;;;;;4996041;28;20176;-49
2024/01/02 07:34:48;;;;;;;0.90;0.47;;;9.90;46.90;;;;;;4995885;28;20179;-49
2024/01/02 07:37:14;;;;;;;1.10;0.87;;;9.90;47.00;;;;;;4995919;28;20861;-48
2024/01/02 07:39:41;;;;;;;1.10;0.90;;;9.90;47.10;;;;;;4995718;28;20204;-47
2024/01/02 07:42:08;;;;;;;1.00;0.50;;;9.90;47.20;;;;;;4995875;28;20274;-48
2024/01/02 07:44:35;;;;;;;0.90;0.40;;;9.80;47.10;;;;;;4995728;28;20202;-52
2024/01/02 07:47:01;;;;;;;1.00;0.82;;;9.90;47.20;;;;;;4995860;28;20211;-48
2024/01/02 07:49:27;;;;;;;1.00;0.80;;;9.80;47.10;;;;;;4995284;28;20215;-49
2024/01/02 07:51:54;;;;;;;1.33;1.00;;;9.80;47.20;;;;;;4995652;28;20197;-51
2024/01/02 07:54:20;;;;;;;1.00;0.73;;;9.80;47.10;;;;;;4995576;28;20735;-49
2024/01/02 07:56:46;;;;;;;2.70;1.20;;;9.80;47.20;;;;;;5016645;22;20222;-47
2024/01/02 07:59:15;;;;;;;1.17;0.88;;;9.80;47.20;;;;;;5014872;28;20438;-52
2024/01/02 08:01:41;;;;;;;1.20;1.05;;;9.80;47.30;;;;;;5015194;28;20240;-49
2024/01/02 08:04:07;;;;;;;1.10;0.85;;;9.80;47.10;;;;;;5015190;28;20186;-48
2024/01/02 08:06:33;;;;;;;1.53;1.43;;;9.70;47.40;;;;;;5014911;28;20209;-47
2024/01/02 08:08:59;;;;;;;0.90;0.50;;;9.70;47.40;;;;;;5014934;28;20240;-46
2024/01/02 08:11:24;;;;;;;4.00;1.43;;;9.70;47.50;;;;;;5014825;28;20210;-55
2024/01/02 08:13:50;;;;;;;2.47;1.60;;;9.70;47.50;;;;;;5015025;28;20177;-54
2024/01/02 08:16:16;;;;;;;1.42;1.05;;;9.70;47.40;;;;;;5014849;28;20284;-45
2024/01/02 08:18:43;;;;;;;1.30;1.17;;;9.80;47.50;;;;;;5014645;28;20171;-54
2024/01/02 08:21:09;;;;;;;2.58;1.50;;;9.80;47.30;;;;;;5014717;28;20189;-53
2024/01/02 08:23:36;;;;;;;0.93;0.70;;;9.70;47.50;;;;;;5014716;28;20545;-49
2024/01/02 08:26:12;;;;;;;1.33;0.90;;;9.80;47.50;;;;;;5014630;28;20719;-47
2024/01/02 08:28:38;;;;;;;0.90;0.70;;;9.80;47.60;;;;;;5014543;28;20248;-53
2024/01/02 08:31:04;;;;;;;2.22;1.27;;;9.80;47.60;;;;;;5014693;28;20193;-46
2024/01/02 08:33:30;;;;;;;2.40;1.23;;;9.80;47.60;;;;;;5014418;28;20190;-54
2024/01/02 08:35:56;;;;;;;0.93;0.63;;;9.80;47.60;;;;;;5014280;28;20203;-47
2024/01/02 08:38:22;;;;;;;0.90;0.63;;;9.80;47.60;;;;;;5013796;28;20186;-49
2024/01/02 08:40:48;;;;;;;0.90;0.67;;;9.80;47.90;;;;;;5014265;28;20298;-52
2024/01/02 08:43:14;;;;;;;2.95;1.50;;;9.70;47.80;;;;;;5014171;28;20933;-48
2024/01/02 08:45:39;;;;;;;1.00;0.80;;;9.70;47.90;;;;;;5014340;28;20183;-47
2024/01/02 08:48:07;;;;;;;1.00;0.87;;;9.80;47.80;;;;;;5014167;28;20437;-54
2024/01/02 08:50:32;;;;;;;1.40;0.90;;;9.80;47.90;;;;;;5014177;28;20190;-49
2024/01/02 08:52:59;;;;;;;1.42;0.93;;;9.70;47.80;;;;;;5014360;28;20228;-47
2024/01/02 08:55:24;;;;;;;1.52;0.80;;;9.80;48.10;;;;;;5014104;28;20214;-54
2024/01/02 08:57:50;;;;;;;1.30;1.10;;;9.70;48.40;;;;;;5013903;28;20679;-47
2024/01/02 09:00:16;;;;;;;1.42;0.98;;;9.70;48.40;;;;;;5013866;28;20178;-47
2024/01/02 09:02:42;;;;;;;0.90;0.60;;;9.70;48.50;;;;;;5014034;28;20177;-52
2024/01/02 09:05:08;;;;;;;1.30;1.20;;;9.70;48.10;;;;;;5013865;28;20266;-48
2024/01/02 09:07:37;;;;;;;0.90;0.73;;;9.80;48.20;;;;;;5013901;28;20203;-46
2024/01/02 09:10:03;;;;;;;0.90;0.60;;;9.80;48.30;;;;;;5013781;28;20259;-51
2024/01/02 09:12:31;;;;;;;1.80;1.13;;;9.80;48.30;;;;;;5013801;28;20186;-48
2024/01/02 09:14:57;;;;;;;0.90;0.60;;;9.80;48.40;;;;;;5013762;28;20190;-47
2024/01/02 09:17:22;;;;;;;0.90;0.40;;;9.80;48.40;;;;;;5013453;28;20954;-53
2024/01/02 09:19:48;;;;;;;1.67;1.13;;;9.80;48.40;;;;;;5013454;28;20261;-50
2024/01/02 09:22:14;;;;;;;1.07;0.70;;;9.80;48.20;;;;;;5013561;28;20269;-52
2024/01/02 09:24:41;;;;;;;0.83;0.40;;;9.80;48.40;;;;;;4997466;28;20203;-49
2024/01/02 09:27:08;;;;;;;1.00;0.60;;;9.80;48.40;;;;;;5013425;28;20977;-51
2024/01/02 09:29:34;;;;;;;2.50;1.17;;;9.80;48.50;;;;;;5013234;28;20197;-48
2024/01/02 09:32:00;;;;;;;3.28;1.10;;;9.80;48.70;;;;;;5013353;28;20179;-45
2024/01/02 09:34:26;;;;;;;2.70;0.60;;;9.80;48.60;;;;;;5013579;28;20213;-54
2024/01/02 09:36:52;;;;;;;0.80;0.30;;;9.90;48.70;;;;;;5013168;28;20795;-45
2024/01/02 09:39:18;;;;;;;0.93;0.55;;;9.80;48.60;;;;;;5013078;28;20424;-48
2024/01/02 09:41:47;;;;;;;1.60;0.85;;;9.90;48.30;;;;;;5013157;28;20175;-51
2024/01/02 09:44:50;;;;;;;2.55;0.88;;;9.90;48.40;;;;;;5013251;28;20517;-48
2024/01/02 09:47:37;;;;;;;0.98;0.75;;;9.90;48.20;;;;;;5012980;28;20714;-48
2024/01/02 09:50:27;;;;;;;1.10;0.70;;;9.90;48.20;;;;;;5013080;28;20610;-47
2024/01/02 09:53:08;;;;;;;0.80;0.20;;;9.90;48.10;;;;;;5013026;28;20174;-55
2024/01/02 09:55:45;;;;;;;0.90;0.50;;;9.90;48.00;;;;;;5013187;28;20543;-47
2024/01/02 09:58:53;;;;;;;2.95;1.88;;;9.80;48.10;;;;;;5012829;28;20222;-54
2024/01/02 10:01:21;;;;;;;1.10;0.70;;;9.80;48.00;;;;;;5012866;28;20174;-53
2024/01/02 10:04:30;;;;;;;3.58;0.73;;;9.80;48.90;;;;;;5012825;28;20181;-51
2024/01/02 10:07:08;;;;;;;0.80;0.38;;;9.70;48.00;;;;;;5012721;28;20212;-54
2024/01/02 10:09:52;;;;;;;0.90;0.65;;;9.70;48.30;;;;;;5012478;28;20186;-45
2024/01/02 10:12:52;;;;;;;1.00;0.40;;;9.60;48.70;;;;;;5012887;28;20189;-49
2024/01/02 10:15:27;;;;;;;1.13;0.65;;;9.60;48.40;;;;;;5012570;28;20659;-52
2024/01/02 10:18:16;;;;;;;0.82;0.38;;;9.60;48.40;;;;;;5012552;28;20220;-46
2024/01/02 10:21:18;;;;;;;1.00;0.77;;;9.60;48.30;;;;;;5012739;28;20209;-53
2024/01/02 10:24:15;;;;;;;1.00;0.70;;;9.70;48.10;;;;;;5012545;28;20583;-54
2024/01/02 10:26:58;;;;;;;1.20;0.95;;;9.70;48.10;;;;;;5012607;28;20198;-48
2024/01/02 10:29:47;;;;;;;1.00;0.70;;;9.70;48.50;;;;;;5012313;28;20209;-50
2024/01/02 10:32:18;;;;;;;0.90;0.55;;;9.70;48.40;;;;;;5012483;28;20213;-46
2024/01/02 10:35:11;;;;;;;0.90;0.45;;;9.70;48.40;;;;;;5012420;28;20178;-46
2024/01/02 10:37:52;;;;;;;1.38;0.70;;;9.70;48.20;;;;;;4989379;28;20275;-54
2024/01/02 10:40:19;;;;;;;1.10;0.90;;;9.70;48.60;;;;;;5012034;28;20346;-48
2024/01/02 10:43:11;;;;;;;1.20;0.80;;;9.70;48.60;;;;;;5012255;28;20192;-48
2024/01/02 10:45:43;;;;;;;0.80;0.40;;;9.80;48.60;;;;;;5005172;28;20214;-53
2024/01/02 10:48:37;;;;;;;0.90;0.50;;;9.80;48.90;;;;;;5012183;28;20583;-48
2024/01/02 10:51:04;;;;;;;0.93;0.60;;;9.80;48.60;;;;;;5012093;28;20192;-49
2024/01/02 10:53:47;;;;;;;1.00;0.68;;;9.80;48.90;;;;;;5011987;28;20645;-49
2024/01/02 10:56:48;;;;;;;0.88;0.35;;;9.80;48.80;;;;;;5012066;28;20206;-46
2024/01/02 10:59:39;;;;;;;0.90;0.40;;;9.80;48.90;;;;;;4998764;28;20194;-52
2024/01/02 11:02:26;;;;;;;0.80;0.20;;;9.90;48.70;;;;;;5014235;28;20235;-55
2024/01/02 11:05:04;;;;;;;0.90;0.65;;;9.90;48.50;;;;;;5018711;28;20175;-48
2024/01/02 11:07:35;;;;;;;1.30;0.82;;;9.90;48.70;;;;;;5018479;28;20245;-48
2024/01/02 11:10:04;;;;;;;1.80;1.30;;;9.90;48.60;;;;;;5018230;28;21090;-48
2024/01/02 11:13:03;;;;;;;0.90;0.50;;;9.80;48.50;;;;;;5018426;28;20256;-48
2024/01/02 11:15:31;;;;;;;0.82;0.47;;;9.80;48.40;;;;;;4995032;28;20178;-50
2024/01/02 11:17:59;;;;;;;0.90;0.50;;;9.80;48.80;;;;;;5012434;28;20263;-53
2024/01/02 11:20:36;;;;;;;0.90;0.43;;;9.80;48.60;;;;;;5018174;28;20179;-46
2024/01/02 11:23:09;;;;;;;0.82;0.45;;;9.80;48.50;;;;;;5018376;28;20182;-48
2024/01/02 11:25:47;;;;;;;0.90;0.65;;;9.90;48.60;;;;;;5018257;28;20200;-51
2024/01/02 11:28:13;;;;;;;0.90;0.50;;;9.80;48.50;;;;;;5018440;28;20201;-55
2024/01/02 11:30:41;;;;;;;0.88;0.38;;;9.80;48.60;;;;;;5018095;28;20167;-45
2024/01/02 11:33:25;;;;;;;1.02;0.65;;;9.90;48.90;;;;;;5018464;28;20182;-47
2024/01/02 11:36:33;;;;;;;0.90;0.40;;;9.90;48.80;;;;;;5018283;28;20257;-47
2024/01/02 11:39:11;;;;;;;0.98;0.70;;;9.80;48.60;;;;;;5017523;28;20182;-55
2024/01/02 11:41:56;;;;;;;1.98;1.02;;;9.80;48.60;;;;;;5018336;28;20190;-48
2024/01/02 11:45:00;;;;;;;0.90;0.68;;;9.90;48.70;;;;;;5018316;28;20178;-48
2024/01/02 11:47:52;;;;;;;0.90;0.50;;;9.90;48.60;;;;;;5017920;28;20206;-50
2024/01/02 11:50:17;;;;;;;0.90;0.70;;;9.90;48.50;;;;;;5017978;28;20695;-53
2024/01/02 11:53:02;;;;;;;1.10;0.87;;;9.90;48.60;;;;;;5018079;28;20272;-45
2024/01/02 11:55:45;;;;;;;0.90;0.50;;;9.80;48.60;;;;;;5018020;28;20444;-56
2024/01/02 11:58:33;;;;;;;1.85;1.25;;;9.90;48.90;;;;;;5018042;28;20218;-46
2024/01/02 12:01:27;;;;;;;0.90;0.60;;;9.80;48.90;;;;;;5018143;28;20604;-51
2024/01/02 12:03:55;;;;;;;0.80;0.40;;;9.80;49.10;;;;;;5018085;28;20195;-51
2024/01/02 12:06:28;;;;;;;0.90;0.40;;;9.80;48.90;;;;;;5017814;28;20536;-53
2024/01/02 12:09:09;;;;;;;0.95;0.70;;;9.70;49.10;;;;;;5018114;28;20184;-47
2024/01/02 12:11:39;;;;;;;1.23;0.95;;;9.70;49.00;;;;;;5017789;28;20184;-53
2024/01/02 12:14:23;;;;;;;0.95;0.73;;;9.70;49.20;;;;;;5014999;28;20236;-53
2024/01/02 12:16:51;;;;;;;0.80;0.30;;;9.70;49.00;;;;;;5014628;28;20292;-48
2024/01/02 12:19:24;;;;;;;0.90;0.55;;;9.70;49.30;;;;;;5014878;28;20660;-57
2024/01/02 12:21:55;;;;;;;0.80;0.30;;;9.70;49.60;;;;;;5014858;28;20416;-52
2024/01/02 12:24:22;;;;;;;0.90;0.55;;;9.70;49.30;;;;;;5014642;28;20192;-47
2024/01/02 12:26:50;;;;;;;0.80;0.30;;;9.80;49.20;;;;;;5014543;28;20329;-55
2024/01/02 12:29:31;;;;;;;0.95;0.75;;;9.80;48.80;;;;;;5014468;28;20938;-47
2024/01/02 12:32:06;;;;;;;1.00;0.55;;;9.90;49.00;;;;;;5014571;28;20177;-49
2024/01/02 12:34:42;;;;;;;0.90;0.60;;;9.90;48.60;;;;;;5006412;28;20265;-48
2024/01/02 12:37:38;;;;;;;0.80;0.30;;;9.90;48.10;;;;;;5014333;28;20217;-46
2024/01/02 12:40:06;;;;;;;0.98;0.73;;;9.90;48.40;;;;;;5014544;28;20179;-48
2024/01/02 12:42:38;;;;;;;1.05;0.95;;;9.90;48.30;;;;;;5014427;28;20261;-52
2024/01/02 12:45:10;;;;;;;0.90;0.50;;;9.90;48.40;;;;;;5014500;28;20183;-47
2024/01/02 12:47:41;;;;;;;0.80;0.38;;;9.90;48.30;;;;;;5014131;28;20202;-45
2024/01/02 12:50:08;;;;;;;1.08;0.52;;;9.90;48.70;;;;;;5014058;28;20651;-56
2024/01/02 12:52:54;;;;;;;0.88;0.47;;;9.90;48.60;;;;;;5014228;28;20232;-47
2024/01/02 12:55:21;;;;;;;0.90;0.40;;;9.80;48.70;;;;;;5014201;28;20232;-54
2024/01/02 12:57:47;;;;;;;0.80;0.40;;;9.80;49.00;;;;;;5013859;28;20274;-49
2024/01/02 13:00:16;;;;;;;0.90;0.50;;;9.70;49.30;;;;;;5013874;28;20179;-46
2024/01/02 13:02:43;;;;;;;0.90;0.57;;;9.80;49.30;;;;;;5013967;28;20552;-53
2024/01/02 13:05:10;;;;;;;1.10;0.60;;;9.70;49.20;;;;;;5013883;28;20183;-55
2024/01/02 13:07:36;;;;;;;0.88;0.45;;;9.80;49.40;;;;;;5013821;28;20205;-46